Time;durP1;ratioP1;P1;durP2;ratioP2;P2;SDS_P1;SDS_P2;PMS_P1;PMS_P2;Temp;Humidity;BMP_temperature;BMP_pressure;BME280_temperature;BME280_humidity;BME280_pressure;Samples;Min_cycle;Max_cycle;Signal;HPM_P1;HPM_P2
2023/01/11 00:00:33;;;;;;;8.30;2.10;;;;;;;4.10;100.00;100281.63;7388511;19;20395;-56
2023/01/11 00:03:05;;;;;;;9.23;2.63;;;;;;;4.10;100.00;100289.28;7397090;19;20750;-62
2023/01/11 00:05:39;;;;;;;5.93;2.60;;;;;;;4.22;100.00;100283.16;7397287;19;20418;-61
2023/01/11 00:08:12;;;;;;;17.33;3.40;;;;;;;4.26;100.00;100265.56;7399969;19;20411;-57
2023/01/11 00:10:41;;;;;;;5.53;2.80;;;;;;;4.48;100.00;100273.59;7395491;19;20413;-60
2023/01/11 00:13:11;;;;;;;7.80;2.63;;;;;;;4.43;100.00;100266.56;7399391;19;20408;-59
2023/01/11 00:15:41;;;;;;;7.53;2.70;;;;;;;4.42;100.00;100267.34;7395009;19;20786;-59
2023/01/11 00:18:11;;;;;;;11.53;3.43;;;;;;;4.41;100.00;100273.25;7400487;19;20386;-60
2023/01/11 00:20:41;;;;;;;3.00;2.20;;;;;;;4.55;100.00;100263.84;7396419;19;20446;-61
2023/01/11 00:23:13;;;;;;;8.10;2.53;;;;;;;4.60;100.00;100251.31;7397742;19;20387;-59
2023/01/11 00:25:43;;;;;;;10.47;3.50;;;;;;;4.63;100.00;100260.84;7395926;19;20774;-61
2023/01/11 00:28:13;;;;;;;6.27;3.07;;;;;;;4.65;100.00;100255.03;7399344;19;20404;-61
2023/01/11 00:30:42;;;;;;;10.43;2.10;;;;;;;4.64;100.00;100263.50;7394425;19;20443;-60
2023/01/11 00:33:12;;;;;;;10.90;2.80;;;;;;;4.68;100.00;100267.97;7398395;19;20404;-62
2023/01/11 00:35:42;;;;;;;10.73;4.00;;;;;;;4.72;100.00;100271.63;7393726;19;20391;-59
2023/01/11 00:38:42;;;;;;;13.20;3.33;;;;;;;4.71;100.00;100250.28;7397211;19;20439;-60
2023/01/11 00:47:55;;;;;;;4.57;1.50;;;;;;;4.70;100.00;100253.63;7392374;19;20447;-60
2023/01/11 00:49:17;;;;;;;5.20;2.50;;;;;;;4.91;100.00;100232.63;7397984;19;20414;-60
2023/01/11 00:51:47;;;;;;;7.80;3.40;;;;;;;4.88;100.00;100226.47;7378100;19;20438;-60
2023/01/11 00:54:19;;;;;;;6.90;3.03;;;;;;;4.89;100.00;100223.09;7399009;19;20427;-61
2023/01/11 00:56:49;;;;;;;7.07;2.47;;;;;;;4.89;100.00;100216.31;7389238;19;20434;-61
2023/01/11 00:59:18;;;;;;;4.00;2.27;;;;;;;4.83;100.00;100223.66;7396809;19;20419;-61
2023/01/11 01:01:48;;;;;;;10.90;3.77;;;;;;;4.77;100.00;100218.19;7397058;19;20439;-59
2023/01/11 01:04:17;;;;;;;11.10;3.83;;;;;;;4.73;100.00;100212.03;7399328;19;20415;-61
2023/01/11 01:06:46;;;;;;;13.37;4.60;;;;;;;4.69;100.00;100216.09;7395010;19;20454;-61
2023/01/11 01:09:19;;;;;;;6.53;3.43;;;;;;;4.58;100.00;100207.78;7398866;19;20412;-59
2023/01/11 01:11:48;;;;;;;7.53;3.57;;;;;;;4.61;100.00;100207.06;7393292;19;20439;-62
2023/01/11 01:14:24;;;;;;;11.20;3.53;;;;;;;4.59;100.00;100208.69;7398186;19;20426;-60
2023/01/11 01:16:54;;;;;;;7.80;3.53;;;;;;;4.55;100.00;100197.41;7395296;19;20542;-61
2023/01/11 01:19:26;;;;;;;7.33;3.80;;;;;;;4.53;100.00;100206.66;7398475;19;20400;-60
2023/01/11 01:21:57;;;;;;;6.23;3.33;;;;;;;4.50;100.00;100197.94;7396266;19;20431;-61
2023/01/11 01:24:30;;;;;;;4.40;2.33;;;;;;;4.52;100.00;100202.31;7398590;19;20411;-62
2023/01/11 01:27:00;;;;;;;7.13;3.20;;;;;;;4.54;100.00;100192.19;7393224;19;20451;-60
2023/01/11 01:29:29;;;;;;;9.93;3.13;;;;;;;4.52;100.00;100186.13;7397908;19;20446;-61
2023/01/11 01:31:59;;;;;;;7.37;2.87;;;;;;;4.54;100.00;100181.97;7395405;19;20479;-60
2023/01/11 01:34:28;;;;;;;10.10;3.37;;;;;;;4.60;100.00;100174.66;7397078;19;20496;-61
2023/01/11 01:36:58;;;;;;;5.63;2.67;;;;;;;4.62;100.00;100173.09;7392693;19;20455;-61
2023/01/11 01:39:30;;;;;;;6.80;2.40;;;;;;;4.63;100.00;100172.28;7395907;19;20427;-61
2023/01/11 01:42:00;;;;;;;11.50;3.40;;;;;;;4.69;100.00;100170.09;7390106;19;20431;-60
2023/01/11 01:45:11;;;;;;;6.97;3.07;;;;;;;4.70;100.00;100164.16;7399394;19;20426;-62
2023/01/11 01:47:46;;;;;;;13.40;3.60;;;;;;;4.75;100.00;100159.31;7393313;19;20471;-61
2023/01/11 01:50:19;;;;;;;8.60;3.60;;;;;;;4.77;100.00;100161.97;7391410;19;20439;-56
2023/01/11 01:52:52;;;;;;;5.00;3.20;;;;;;;4.79;100.00;100161.25;7396760;19;20751;-59
2023/01/11 01:55:28;;;;;;;8.20;2.60;;;;;;;4.80;100.00;100159.56;7391853;19;20483;-58
2023/01/11 01:57:58;;;;;;;7.20;2.80;;;;;;;4.84;100.00;100158.94;7394231;19;20391;-58
2023/01/11 02:00:28;;;;;;;12.77;4.73;;;;;;;4.85;100.00;100148.81;7391017;19;20423;-58
2023/01/11 02:02:59;;;;;;;11.43;4.60;;;;;;;4.89;100.00;100152.41;7396287;19;20399;-58
2023/01/11 02:05:28;;;;;;;5.47;2.50;;;;;;;4.86;100.00;100152.22;7395681;19;20744;-57
2023/01/11 02:07:59;;;;;;;7.57;2.50;;;;;;;4.89;100.00;100151.53;7397869;19;20417;-58
2023/01/11 02:10:31;;;;;;;11.80;4.60;;;;;;;4.89;100.00;100137.06;7394415;19;20424;-59
2023/01/11 02:13:04;;;;;;;7.23;3.53;;;;;;;4.90;100.00;100141.38;7397710;19;20392;-60
2023/01/11 02:15:34;;;;;;;7.33;3.63;;;;;;;4.98;100.00;100119.66;7395356;19;20609;-60
2023/01/11 02:18:03;;;;;;;8.80;3.43;;;;;;;4.98;100.00;100139.25;7397362;19;21014;-58
2023/01/11 02:20:52;;;;;;;12.17;3.30;;;;;;;4.95;100.00;100111.84;7394600;19;20423;-59
2023/01/11 02:23:44;;;;;;;4.37;2.93;;;;;;;4.97;100.00;100110.25;7396677;19;20419;-59
2023/01/11 02:26:44;;;;;;;6.33;2.60;;;;;;;5.03;100.00;100111.38;7392247;19;20451;-58
2023/01/11 02:29:24;;;;;;;6.03;2.77;;;;;;;5.07;100.00;100105.63;7397020;19;21815;-56
2023/01/11 02:31:58;;;;;;;4.10;2.00;;;;;;;5.08;100.00;100086.94;7394547;19;20431;-60
2023/01/11 02:34:33;;;;;;;4.57;2.57;;;;;;;5.16;100.00;100095.00;7396935;19;20387;-60
2023/01/11 02:37:13;;;;;;;4.60;2.10;;;;;;;5.14;100.00;100115.38;7392477;19;20446;-61
2023/01/11 02:40:00;;;;;;;4.30;2.30;;;;;;;5.17;100.00;100100.19;7396170;19;21292;-61
2023/01/11 02:45:34;;;;;;;3.43;2.10;;;;;;;5.29;100.00;100081.19;7393582;19;20431;-61
2023/01/11 02:48:06;;;;;;;3.33;2.40;;;;;;;5.31;100.00;100105.16;7395745;19;20400;-61
2023/01/11 02:50:41;;;;;;;2.27;1.10;;;;;;;5.35;100.00;100082.41;7393093;19;20447;-60
2023/01/11 02:53:15;;;;;;;4.33;1.80;;;;;;;5.44;100.00;100073.44;7388091;19;20403;-62
2023/01/11 02:55:47;;;;;;;3.00;1.33;;;;;;;5.47;100.00;100082.13;7392873;19;20445;-58
2023/01/11 02:58:20;;;;;;;2.80;1.10;;;;;;;5.47;100.00;100086.38;7394129;19;20408;-60
2023/01/11 03:00:54;;;;;;;3.70;1.50;;;;;;;5.50;100.00;100102.75;7389563;19;20431;-58
2023/01/11 03:03:26;;;;;;;2.20;1.70;;;;;;;5.53;100.00;100100.38;7392837;19;20379;-59
2023/01/11 03:05:59;;;;;;;4.27;1.90;;;;;;;5.63;100.00;100105.94;7388492;19;20408;-57
2023/01/11 03:08:50;;;;;;;2.53;1.33;;;;;;;5.62;100.00;100106.75;7395523;19;20387;-59
2023/01/11 03:12:50;;;;;;;4.23;2.23;;;;;;;5.71;100.00;100111.47;7390736;19;20976;-58
2023/01/11 03:14:20;;;;;;;3.60;2.00;;;;;;;5.81;100.00;100103.47;7394751;19;20405;-58
2023/01/11 03:16:57;;;;;;;4.03;2.20;;;;;;;5.84;100.00;100112.97;7390014;19;20443;-58
2023/01/11 03:19:31;;;;;;;4.83;1.90;;;;;;;5.87;100.00;100120.81;7395008;19;20391;-58
2023/01/11 03:22:05;;;;;;;3.13;1.03;;;;;;;5.93;100.00;100113.44;7391655;19;20439;-60
2023/01/11 03:24:40;;;;;;;3.23;1.23;;;;;;;6.00;100.00;100125.72;7395512;19;20417;-57
2023/01/11 03:27:21;;;;;;;2.70;2.00;;;;;;;6.05;100.00;100119.19;7392268;19;20431;-59
2023/01/11 03:29:55;;;;;;;2.17;1.43;;;;;;;6.09;100.00;100138.16;7394354;19;20448;-58
2023/01/11 03:32:31;;;;;;;3.53;1.83;;;;;;;6.12;100.00;100137.44;7393232;19;20979;-57
2023/01/11 03:35:13;;;;;;;1.30;0.70;;;;;;;6.13;100.00;100131.50;7395703;19;20921;-59
2023/01/11 03:37:46;;;;;;;2.27;1.33;;;;;;;6.17;100.00;100123.19;7392618;19;20548;-58
2023/01/11 03:40:19;;;;;;;5.50;1.67;;;;;;;6.19;100.00;100139.50;7387968;19;20942;-56
2023/01/11 03:45:35;;;;;;;2.17;1.47;;;;;;;6.15;100.00;100140.16;7388749;19;20410;-59
2023/01/11 03:48:10;;;;;;;1.73;0.87;;;;;;;6.12;100.00;100134.88;7390558;19;20409;-59
2023/01/11 03:50:40;;;;;;;1.83;1.37;;;;;;;6.16;100.00;100153.03;7386897;19;20418;-60
2023/01/11 03:53:10;;;;;;;1.60;0.90;;;;;;;6.10;100.00;100147.59;7391308;19;20393;-60
2023/01/11 03:55:41;;;;;;;4.50;1.30;;;;;;;6.08;100.00;100144.97;7387444;19;20418;-61
2023/01/11 03:58:11;;;;;;;7.23;1.90;;;;;;;6.13;100.00;100131.50;7388794;19;20394;-57
2023/01/11 04:00:40;;;;;;;2.30;1.70;;;;;;;6.15;100.00;100130.78;7386853;19;20411;-62
2023/01/11 04:03:13;;;;;;;2.53;1.90;;;;;;;6.16;100.00;100121.44;7390827;19;20476;-61
2023/01/11 04:05:45;;;;;;;2.13;1.50;;;;;;;6.15;100.00;100129.91;7387931;19;20425;-62
2023/01/11 04:08:14;;;;;;;2.93;1.60;;;;;;;6.14;100.00;100123.00;7390834;19;20413;-62
2023/01/11 04:10:43;;;;;;;2.47;1.73;;;;;;;6.17;100.00;100112.94;7387046;19;20400;-62
2023/01/11 04:13:13;;;;;;;1.60;0.80;;;;;;;6.15;100.00;100117.13;7390335;19;20412;-58
2023/01/11 04:15:43;;;;;;;2.63;1.20;;;;;;;6.22;100.00;100106.34;7387560;19;20778;-63
2023/01/11 04:18:15;;;;;;;2.10;1.30;;;;;;;6.19;100.00;100091.72;7388437;19;20396;-62
2023/01/11 04:20:44;;;;;;;2.67;2.03;;;;;;;6.23;100.00;100092.75;7386990;19;20409;-62
2023/01/11 04:23:14;;;;;;;2.47;1.30;;;;;;;6.19;100.00;100078.00;7390356;19;20404;-61
2023/01/11 04:25:43;;;;;;;1.77;1.30;;;;;;;6.16;100.00;100076.19;7387486;19;20778;-56
2023/01/11 04:28:13;;;;;;;2.30;1.33;;;;;;;6.18;100.00;100073.69;7389370;19;20396;-62
2023/01/11 04:30:42;;;;;;;3.10;1.60;;;;;;;6.18;100.00;100073.69;7385410;19;20962;-57
2023/01/11 04:33:14;;;;;;;5.93;1.50;;;;;;;6.17;100.00;100077.06;7394200;19;20420;-59
2023/01/11 04:35:44;;;;;;;1.37;0.60;;;;;;;6.19;100.00;100060.09;7387049;19;20401;-52
2023/01/11 04:38:13;;;;;;;2.80;1.57;;;;;;;6.17;100.00;100054.91;7387814;19;20422;-63
2023/01/11 04:40:43;;;;;;;2.27;1.70;;;;;;;6.19;100.00;100044.72;7386340;19;20409;-63
2023/01/11 04:43:10;;;;;;;1.80;1.17;;;;;;;6.19;100.00;100058.41;7389747;19;20404;-62
2023/01/11 04:45:39;;;;;;;1.80;1.50;;;;;;;6.22;100.00;100039.75;7386226;19;20426;-61
2023/01/11 04:48:08;;;;;;;1.60;1.00;;;;;;;6.22;100.00;100055.13;7388725;19;20396;-61
2023/01/11 04:50:41;;;;;;;2.00;1.40;;;;;;;6.23;100.00;100046.63;7393412;19;20433;-62
2023/01/11 04:53:10;;;;;;;1.50;1.10;;;;;;;6.27;100.00;100032.28;7396969;19;20370;-62
2023/01/11 04:55:40;;;;;;;2.27;1.27;;;;;;;6.28;100.00;100041.72;7392220;19;20405;-59
2023/01/11 04:58:09;;;;;;;2.57;1.93;;;;;;;6.30;100.00;100028.16;7394673;19;20408;-61
2023/01/11 05:00:39;;;;;;;1.80;1.30;;;;;;;6.34;100.00;100024.97;7392071;19;20984;-60
2023/01/11 05:03:08;;;;;;;2.70;1.37;;;;;;;6.31;100.00;100035.06;7396544;19;20390;-61
2023/01/11 05:05:40;;;;;;;1.80;1.00;;;;;;;6.34;100.00;100027.53;7393288;19;20416;-61
2023/01/11 05:08:10;;;;;;;2.93;1.50;;;;;;;6.43;100.00;100034.78;7395603;19;20961;-60
2023/01/11 05:10:39;;;;;;;2.90;0.80;;;;;;;6.40;100.00;100039.72;7394279;19;20421;-59
2023/01/11 05:13:08;;;;;;;1.83;1.03;;;;;;;6.38;100.00;100037.91;7396604;19;20769;-61
2023/01/11 05:15:38;;;;;;;1.60;1.00;;;;;;;6.41;100.00;100045.75;7392746;19;20424;-60
2023/01/11 05:18:07;;;;;;;2.33;1.20;;;;;;;6.42;100.00;100052.63;7393963;19;20819;-59
2023/01/11 05:20:37;;;;;;;1.70;0.87;;;;;;;6.45;100.00;100047.63;7391784;19;20436;-60
2023/01/11 05:23:09;;;;;;;3.17;1.10;;;;;;;6.45;100.00;100043.41;7396289;19;20758;-58
2023/01/11 05:25:38;;;;;;;2.67;1.50;;;;;;;6.50;100.00;100040.19;7393348;19;20407;-61
2023/01/11 05:28:07;;;;;;;1.60;0.90;;;;;;;6.45;100.00;100039.94;7394835;19;20403;-60
2023/01/11 05:30:37;;;;;;;1.37;0.60;;;;;;;6.47;100.00;100046.03;7391378;19;20406;-58
2023/01/11 05:33:06;;;;;;;1.93;0.87;;;;;;;6.51;100.00;100045.34;7395192;19;20396;-59
2023/01/11 05:35:36;;;;;;;1.93;1.53;;;;;;;6.54;100.00;100052.31;7392617;19;20426;-59
2023/01/11 05:38:05;;;;;;;2.23;1.20;;;;;;;6.53;100.00;100041.19;7394120;19;20381;-56
2023/01/11 05:40:37;;;;;;;1.60;1.40;;;;;;;6.58;100.00;100037.19;7391873;19;20428;-62
2023/01/11 05:43:06;;;;;;;1.40;1.00;;;;;;;6.55;100.00;100044.72;7395130;19;20385;-60
2023/01/11 05:45:37;;;;;;;2.13;1.10;;;;;;;6.59;100.00;100046.63;7392736;19;20413;-62
2023/01/11 05:48:07;;;;;;;1.80;1.27;;;;;;;6.66;100.00;100041.78;7394230;19;20428;-61
2023/01/11 05:50:36;;;;;;;1.80;1.07;;;;;;;6.64;100.00;100045.94;7391175;19;20407;-61
2023/01/11 05:53:06;;;;;;;4.80;1.43;;;;;;;6.66;100.00;100052.88;7394809;19;20766;-60
2023/01/11 05:55:39;;;;;;;3.20;1.40;;;;;;;6.70;100.00;100039.41;7391743;19;20760;-58
2023/01/11 05:58:08;;;;;;;1.70;1.13;;;;;;;6.72;100.00;100044.63;7393188;19;20401;-58
2023/01/11 06:00:38;;;;;;;1.73;1.30;;;;;;;6.75;100.00;100026.78;7388228;19;20397;-58
2023/01/11 06:03:07;;;;;;;2.20;1.10;;;;;;;6.72;100.00;100037.78;7394333;19;20401;-59
2023/01/11 06:05:37;;;;;;;2.63;1.87;;;;;;;6.80;100.00;100037.25;7391950;19;20487;-61
2023/01/11 06:08:07;;;;;;;1.27;0.53;;;;;;;6.79;100.00;100041.53;7393545;19;20383;-61
2023/01/11 06:10:39;;;;;;;1.63;0.97;;;;;;;6.82;100.00;100051.03;7390918;19;20479;-61
2023/01/11 06:15:51;;;;;;;2.90;1.60;;;;;;;6.91;100.00;100045.47;7390817;19;20429;-57
2023/01/11 06:18:20;;;;;;;2.10;1.33;;;;;;;6.91;100.00;100050.59;7393733;19;20398;-60
2023/01/11 06:20:50;;;;;;;1.50;0.97;;;;;;;6.88;100.00;100057.31;7390583;19;20405;-59
2023/01/11 06:23:20;;;;;;;2.03;1.43;;;;;;;6.91;100.00;100053.16;7394050;19;20398;-59
2023/01/11 06:25:52;;;;;;;1.70;1.37;;;;;;;6.91;100.00;100058.28;7390933;19;20412;-61
2023/01/11 06:28:22;;;;;;;5.33;1.77;;;;;;;6.93;100.00;100043.84;7393424;19;20397;-60
2023/01/11 06:30:55;;;;;;;2.30;1.00;;;;;;;6.92;100.00;100044.66;7390761;19;20777;-59
2023/01/11 06:33:25;;;;;;;2.77;1.50;;;;;;;6.93;100.00;100039.59;7393263;19;20419;-57
2023/01/11 06:35:55;;;;;;;2.43;2.03;;;;;;;6.96;100.00;100033.69;7390484;19;20412;-57
2023/01/11 06:38:26;;;;;;;1.87;1.33;;;;;;;6.95;100.00;100029.38;7392767;19;20392;-59
2023/01/11 06:40:59;;;;;;;2.93;1.80;;;;;;;6.94;100.00;100032.75;7389697;19;20405;-59
2023/01/11 06:43:29;;;;;;;3.60;1.80;;;;;;;6.97;100.00;100035.47;7393212;19;20398;-60
2023/01/11 06:46:00;;;;;;;2.30;1.50;;;;;;;6.99;100.00;100028.72;7389500;19;20416;-58
2023/01/11 06:48:29;;;;;;;2.77;1.83;;;;;;;7.01;100.00;100024.53;7392433;19;20939;-59
2023/01/11 06:51:00;;;;;;;2.53;1.17;;;;;;;7.01;100.00;100030.53;7389183;19;21091;-59
2023/01/11 06:53:29;;;;;;;2.97;1.97;;;;;;;7.09;100.00;100010.38;7397217;19;20399;-59
2023/01/11 06:56:02;;;;;;;4.73;2.50;;;;;;;7.11;100.00;100021.56;7388868;19;20408;-60
2023/01/11 06:58:31;;;;;;;2.43;2.03;;;;;;;7.08;100.00;100041.94;7391994;19;20404;-58
2023/01/11 07:01:01;;;;;;;3.10;2.30;;;;;;;7.09;100.00;100030.00;7387966;19;20418;-60
2023/01/11 07:03:31;;;;;;;3.13;2.70;;;;;;;7.12;100.00;100031.00;7392631;19;20379;-57
2023/01/11 07:06:00;;;;;;;5.47;1.47;;;;;;;7.16;100.00;100045.75;7389695;19;20415;-60
2023/01/11 07:08:30;;;;;;;5.20;2.70;;;;;;;7.20;100.00;100035.59;7392141;19;20394;-59
2023/01/11 07:11:02;;;;;;;4.43;1.90;;;;;;;7.19;100.00;100028.72;7389133;19;21287;-56
2023/01/11 07:13:31;;;;;;;3.77;3.23;;;;;;;7.24;100.00;100029.81;7396187;19;20410;-58
2023/01/11 07:16:01;;;;;;;3.60;2.47;;;;;;;7.23;100.00;100033.19;7389977;19;20812;-57
2023/01/11 07:18:32;;;;;;;4.03;3.07;;;;;;;7.23;100.00;100036.59;7391630;19;20502;-59
2023/01/11 07:21:01;;;;;;;4.90;3.40;;;;;;;7.25;100.00;100039.25;7388510;19;20942;-57
2023/01/11 07:23:31;;;;;;;4.77;3.47;;;;;;;7.26;100.00;100041.00;7391655;19;20391;-57
2023/01/11 07:26:03;;;;;;;5.20;3.77;;;;;;;7.27;100.00;100037.63;7388387;19;20404;-59
2023/01/11 07:28:32;;;;;;;5.00;3.80;;;;;;;7.30;100.00;100030.94;7391297;19;20396;-59
2023/01/11 07:31:01;;;;;;;6.17;3.70;;;;;;;7.33;100.00;100027.63;7387014;19;20422;-56
2023/01/11 07:33:31;;;;;;;4.40;2.97;;;;;;;7.39;100.00;100017.63;7390818;19;20384;-59
2023/01/11 07:36:04;;;;;;;5.20;4.20;;;;;;;7.41;100.00;100016.00;7384585;19;20532;-59
2023/01/11 07:38:34;;;;;;;6.80;3.83;;;;;;;7.40;100.00;99998.84;7390247;19;20410;-60
2023/01/11 07:43:10;;;;;;;8.87;4.30;;;;;;;7.44;100.00;99987.03;7387270;19;20433;-59
2023/01/11 07:43:53;;;;;;;5.83;4.60;;;;;;;7.49;100.00;99971.81;7390250;19;20423;-61
2023/01/11 07:46:22;;;;;;;6.77;4.67;;;;;;;7.48;100.00;99959.81;7386772;19;20421;-57
2023/01/11 07:48:52;;;;;;;8.30;5.27;;;;;;;7.49;100.00;99959.00;7390110;19;20420;-58
2023/01/11 07:51:23;;;;;;;6.80;4.93;;;;;;;7.49;100.00;99943.59;7386726;19;20423;-57
2023/01/11 07:53:52;;;;;;;8.50;5.77;;;;;;;7.53;100.00;99942.88;7390682;19;20432;-58
2023/01/11 07:56:24;;;;;;;6.80;4.87;;;;;;;7.51;100.00;99934.25;7386422;19;20424;-60
2023/01/11 07:58:54;;;;;;;7.00;5.03;;;;;;;7.52;100.00;99933.44;7390098;19;20396;-59
2023/01/11 08:01:23;;;;;;;9.73;4.90;;;;;;;7.49;100.00;99926.47;7386518;19;20466;-58
2023/01/11 08:03:52;;;;;;;6.73;5.00;;;;;;;7.51;100.00;99911.16;7390578;19;20388;-58
2023/01/11 08:06:22;;;;;;;6.67;4.43;;;;;;;7.50;100.00;99911.97;7386959;19;20975;-58
2023/01/11 08:08:51;;;;;;;6.90;4.63;;;;;;;7.53;100.00;99901.81;7389631;19;20509;-61
2023/01/11 08:16:47;;;;;;;7.00;5.20;;;;;;;7.57;100.00;99890.84;7385611;19;20423;-59
2023/01/11 08:19:17;;;;;;;6.90;4.80;;;;;;;7.55;100.00;99874.53;7388951;19;20413;-58
2023/01/11 08:21:46;;;;;;;6.53;4.93;;;;;;;7.55;100.00;99864.25;7388259;19;20446;-59
2023/01/11 08:24:16;;;;;;;6.17;4.43;;;;;;;7.60;100.00;99846.47;7392759;19;20392;-61
2023/01/11 08:26:48;;;;;;;3.93;2.90;;;;;;;7.56;100.00;99848.03;7393780;19;20418;-57
2023/01/11 08:29:17;;;;;;;6.00;3.70;;;;;;;7.57;100.00;99840.41;7396787;19;20391;-59
2023/01/11 08:31:47;;;;;;;4.50;2.97;;;;;;;7.61;100.00;99833.69;7393258;19;20422;-58
2023/01/11 08:34:16;;;;;;;3.33;2.70;;;;;;;7.63;100.00;99836.34;7396602;19;20399;-58
2023/01/11 08:36:46;;;;;;;4.77;3.27;;;;;;;7.62;100.00;99834.56;7395342;19;20450;-58
2023/01/11 08:39:15;;;;;;;5.10;3.40;;;;;;;7.62;100.00;99840.56;7396100;19;20926;-58
2023/01/11 08:41:47;;;;;;;3.03;2.23;;;;;;;7.62;100.00;99842.25;7393699;19;20415;-58
2023/01/11 08:44:17;;;;;;;5.60;3.40;;;;;;;7.64;100.00;99845.78;7396338;19;20411;-58
2023/01/11 08:46:57;;;;;;;4.17;2.53;;;;;;;7.63;100.00;99842.31;7392740;19;20422;-58
2023/01/11 08:49:27;;;;;;;7.20;2.33;;;;;;;7.63;100.00;99855.16;7395402;19;20375;-57
2023/01/11 08:51:56;;;;;;;6.43;2.50;;;;;;;7.63;100.00;99862.84;7393343;19;20415;-61
2023/01/11 08:54:26;;;;;;;4.17;2.50;;;;;;;7.67;100.00;99872.44;7396692;19;20764;-56
2023/01/11 08:56:59;;;;;;;4.13;2.13;;;;;;;7.69;100.00;99895.59;7391923;19;20421;-59
2023/01/11 08:59:28;;;;;;;3.43;2.30;;;;;;;7.70;100.00;99917.91;7399095;19;20395;-59
2023/01/11 09:01:58;;;;;;;3.27;2.30;;;;;;;7.72;100.00;99943.63;7392371;19;20922;-58
2023/01/11 09:04:27;;;;;;;9.03;2.90;;;;;;;7.69;100.00;99994.06;7395353;19;20505;-60
2023/01/11 09:06:57;;;;;;;2.80;2.20;;;;;;;7.68;100.00;100063.31;7393233;19;20810;-59
2023/01/11 09:09:26;;;;;;;13.97;2.40;;;;;;;7.70;100.00;100107.94;7395144;19;20399;-59
2023/01/11 09:12:01;;;;;;;5.60;2.63;;;;;;;7.72;100.00;100138.78;7392747;19;20974;-57
2023/01/11 09:14:33;;;;;;;9.23;2.60;;;;;;;7.74;100.00;100168.00;7395509;19;20392;-54
2023/01/11 09:17:03;;;;;;;4.30;2.30;;;;;;;7.73;100.00;100176.53;7391645;19;20418;-58
2023/01/11 09:19:33;;;;;;;5.07;2.40;;;;;;;7.75;100.00;100195.44;7394343;19;20418;-61
2023/01/11 09:22:03;;;;;;;3.70;2.33;;;;;;;7.75;100.00;100208.28;7393071;19;20803;-58
2023/01/11 09:24:32;;;;;;;5.73;2.37;;;;;;;7.75;100.00;100216.84;7395683;19;20415;-59
2023/01/11 09:27:04;;;;;;;4.57;2.90;;;;;;;7.76;100.00;100233.13;7391414;19;20450;-59
2023/01/11 09:29:34;;;;;;;6.50;3.17;;;;;;;7.79;100.00;100233.28;7394251;19;21034;-59
2023/01/11 09:32:06;;;;;;;6.43;3.50;;;;;;;7.79;100.00;100233.28;7390613;19;20965;-55
2023/01/11 09:34:35;;;;;;;8.13;4.10;;;;;;;7.81;100.00;100247.06;7394238;19;20416;-61
2023/01/11 09:37:05;;;;;;;9.80;5.43;;;;;;;7.81;100.00;100252.22;7391095;19;20411;-59
2023/01/11 09:39:36;;;;;;;11.33;4.23;;;;;;;7.81;100.00;100242.78;7393980;19;20505;-53
2023/01/11 09:42:38;;;;;;;12.50;4.07;;;;;;;7.81;100.00;100239.38;7389383;19;20757;-57
2023/01/11 09:45:14;;;;;;;7.87;4.10;;;;;;;7.87;100.00;100237.06;7390642;19;20394;-58
2023/01/11 09:47:47;;;;;;;9.50;5.00;;;;;;;7.84;100.00;100242.06;7391588;19;20418;-57
2023/01/11 09:50:20;;;;;;;6.23;4.00;;;;;;;7.85;100.00;100246.41;7390600;19;20419;-55
2023/01/11 09:52:52;;;;;;;5.10;3.90;;;;;;;7.86;100.00;100245.59;7393577;19;20408;-54
2023/01/11 09:55:26;;;;;;;5.80;3.40;;;;;;;7.82;100.00;100249.72;7391057;19;20402;-58
2023/01/11 09:58:21;;;;;;;9.23;3.37;;;;;;;7.82;100.00;100251.38;7393033;19;20407;-60
2023/01/11 10:00:54;;;;;;;12.77;3.60;;;;;;;7.84;100.00;100254.91;7389876;19;21420;-56
2023/01/11 10:03:57;;;;;;;6.73;3.53;;;;;;;7.87;100.00;100262.75;7394103;19;20419;-59
2023/01/11 10:06:29;;;;;;;4.63;3.10;;;;;;;7.86;100.00;100270.38;7390515;19;20845;-56
2023/01/11 10:09:09;;;;;;;5.93;3.47;;;;;;;7.87;100.00;100267.91;7393767;19;20384;-60
2023/01/11 10:12:07;;;;;;;7.73;4.47;;;;;;;7.93;100.00;100272.41;7390058;19;20451;-61
2023/01/11 10:15:11;;;;;;;9.20;3.80;;;;;;;7.95;100.00;100281.94;7394060;19;20396;-58
2023/01/11 10:18:14;;;;;;;7.63;4.07;;;;;;;7.95;100.00;100271.69;7393557;19;20493;-60
2023/01/11 10:21:09;;;;;;;5.70;3.30;;;;;;;7.95;100.00;100273.38;7389907;19;20422;-58
2023/01/11 10:23:45;;;;;;;5.73;3.80;;;;;;;8.03;100.00;100273.69;7392732;19;20387;-56
2023/01/11 10:26:26;;;;;;;8.87;3.60;;;;;;;7.97;100.00;100275.22;7389046;19;20424;-58
2023/01/11 10:29:16;;;;;;;6.10;3.07;;;;;;;7.99;100.00;100290.69;7393336;19;20383;-61
2023/01/11 10:32:08;;;;;;;6.03;3.07;;;;;;;7.97;100.00;100295.75;7390946;19;20779;-60
2023/01/11 10:34:58;;;;;;;9.40;2.70;;;;;;;8.01;100.00;100308.72;7392636;19;20741;-61
2023/01/11 10:37:45;;;;;;;8.70;3.13;;;;;;;7.96;100.00;100319.66;7389085;19;21031;-60
2023/01/11 10:40:34;;;;;;;7.37;2.80;;;;;;;8.00;100.00;100333.53;7388609;19;20487;-58
2023/01/11 10:43:08;;;;;;;10.67;3.30;;;;;;;7.97;100.00;100339.44;7396499;19;20419;-61
2023/01/11 10:45:42;;;;;;;6.07;2.70;;;;;;;7.97;100.00;100324.03;7390443;19;20490;-60
2023/01/11 10:48:22;;;;;;;5.40;2.47;;;;;;;8.00;100.00;100318.13;7391055;19;20402;-60
2023/01/11 10:51:01;;;;;;;8.47;2.53;;;;;;;8.01;100.00;100329.28;7389854;19;20792;-60
2023/01/11 10:53:36;;;;;;;5.00;2.23;;;;;;;8.03;100.00;100319.94;7396385;19;20392;-61
2023/01/11 10:56:17;;;;;;;3.57;2.00;;;;;;;8.01;100.00;100321.56;7391231;19;20449;-59
2023/01/11 10:59:06;;;;;;;6.73;2.53;;;;;;;8.07;100.00;100324.44;7395956;19;20409;-60
2023/01/11 11:01:48;;;;;;;19.43;8.00;;;;;;;8.04;100.00;100337.13;7390623;19;20454;-61
2023/01/11 11:04:30;;;;;;;10.27;4.63;;;;;;;8.02;100.00;100336.19;7392548;19;20399;-60
2023/01/11 11:07:07;;;;;;;11.93;4.97;;;;;;;8.00;100.00;100354.09;7389507;19;20423;-60
2023/01/11 11:09:41;;;;;;;6.87;2.80;;;;;;;8.01;100.00;100344.69;7391008;19;20408;-58
2023/01/11 11:12:14;;;;;;;21.27;7.87;;;;;;;8.06;100.00;100340.66;7389668;19;20431;-59
2023/01/11 11:14:47;;;;;;;8.27;2.67;;;;;;;8.01;100.00;100343.03;7395870;19;20406;-61
2023/01/11 11:17:24;;;;;;;12.27;4.50;;;;;;;8.01;100.00;100344.69;7388851;19;21003;-61
2023/01/11 11:19:56;;;;;;;8.83;3.33;;;;;;;8.01;100.00;100339.56;7391648;19;20418;-61
2023/01/11 11:22:26;;;;;;;17.43;4.30;;;;;;;7.95;100.00;100343.59;7387808;19;20435;-62
2023/01/11 11:25:01;;;;;;;2.40;1.47;;;;;;;7.99;100.00;100343.75;7391709;19;20738;-60
2023/01/11 11:27:35;;;;;;;6.90;1.83;;;;;;;7.99;100.00;100351.47;7390356;19;20437;-61
2023/01/11 11:30:06;;;;;;;2.53;1.80;;;;;;;7.96;100.00;100355.63;7390386;19;20787;-60
2023/01/11 11:32:37;;;;;;;47.20;12.73;;;;;;;8.01;100.00;100345.59;7390492;19;20419;-62
2023/01/11 11:35:31;;;;;;;8.40;2.10;;;;;;;8.05;100.00;100333.75;7391720;19;20973;-60
2023/01/11 11:41:52;;;;;;;13.90;4.03;;;;;;;7.97;100.00;100361.66;7250957;19;2923989;-55
2023/01/11 11:44:23;;;;;;;10.33;2.70;;;;;;;7.98;100.00;100373.69;7427490;19;20134;-56
2023/01/11 11:47:01;;;;;;;8.93;2.30;;;;;;;8.00;100.00;100376.34;7403827;19;20414;-58
2023/01/11 11:49:31;;;;;;;14.60;4.23;;;;;;;7.97;100.00;100388.25;7425999;19;20405;-55
2023/01/11 11:52:02;;;;;;;12.03;3.80;;;;;;;8.01;100.00;100384.13;7422193;19;20413;-59
2023/01/11 11:54:33;;;;;;;9.23;2.60;;;;;;;8.01;100.00;100385.81;7427268;19;20414;-57
2023/01/11 11:57:17;;;;;;;6.40;2.30;;;;;;;7.99;100.00;100388.31;7423143;19;20434;-58
2023/01/11 11:59:48;;;;;;;14.50;2.30;;;;;;;7.99;100.00;100395.16;7421034;19;20432;-58
2023/01/11 12:02:24;;;;;;;39.77;8.20;;;;;;;8.04;100.00;100393.66;7426339;19;20382;-58
2023/01/11 12:04:54;;;;;;;7.43;2.43;;;;;;;7.94;100.00;100397.47;7423506;19;20398;-57
2023/01/11 12:07:25;;;;;;;6.10;2.00;;;;;;;7.96;100.00;100394.19;7426493;19;20407;-57
2023/01/11 12:09:59;;;;;;;21.07;5.60;;;;;;;7.99;100.00;100385.72;7422618;19;20407;-58
2023/01/11 12:12:34;;;;;;;6.40;2.27;;;;;;;7.98;100.00;100386.53;7425954;19;20387;-56
2023/01/11 12:15:20;;;;;;;7.80;2.73;;;;;;;7.97;100.00;100398.53;7423776;19;20749;-58